Millennium Star — WDA2184 — position and weather

sailwx.info

Track history (hours):
 
Tides and Currents Weather Stations Pressure Air Temp Water Temp Dewpoint Dewpoint Depression Visibility Wind Speed Wind Dir Waves Ship Positions

Millennium Star

Owner: Harley Marine Services, INC, SEATTLE, WA. More information available from US FCC via Universal Licensing System and Coast Guard Vessel Documentation Center.

Last reported at 2017-Oct-17 15:30 UTC. Time now 2017-Oct-17 15:43 UTC.
Position N 48°47' W 122°44'.

Length 30 m; draft 4 m.

Type: Tug. MMSI: 366971980.

Date/timePositionNaut miles runAvg speedWind from/ knotsBaromVisibWave heightAir tempDewpointWater temp
2017-Oct-17 15:30N 48°47' W 122°44'3 0.2
2017-Oct-16 20:15N 48°44' W 122°44'210.5
2017-Oct-16 20:00N 48°42' W 122°43'510.0
2017-Oct-16 19:30N 48°38' W 122°39'4 8.3
2017-Oct-16 19:01N 48°35' W 122°35'3 0.1
2017-Oct-15 04:08N 48°31' W 122°37'1 3.8
2017-Oct-15 04:00N 48°32' W 122°36'4 8.5
2017-Oct-15 03:30N 48°36' W 122°34'1 1.7
2017-Oct-15 03:00N 48°36' W 122°35'510.7
2017-Oct-15 02:30N 48°40' W 122°41'611.5
2017-Oct-15 02:00N 48°45' W 122°45'3 0.2
2017-Oct-14 13:10N 48°48' W 122°44'2 5.6
2017-Oct-14 12:51N 48°46' W 122°45'2 6.0
2017-Oct-14 12:30N 48°44' W 122°45'4 9.0
2017-Oct-14 12:00N 48°40' W 122°41'5 9.9
2017-Oct-14 11:30N 48°36' W 122°37'5 8.1
2017-Oct-14 10:55N 48°31' W 122°36'1 0.1
2017-Oct-14 04:53N 48°31' W 122°37'0 0.0
2017-Oct-14 04:23N 48°31' W 122°37'0 0.0
2017-Oct-12 21:14N 48°31' W 122°37'0 0.2
2017-Oct-12 19:30N 48°31' W 122°36'2 4.4
2017-Oct-12 19:00N 48°31' W 122°39'4 8.2
2017-Oct-12 18:30N 48°29' W 122°44'713.4
2017-Oct-12 18:00N 48°23' W 122°50'713.3
2017-Oct-12 17:27N 48°19' W 122°59'612.8
2017-Oct-12 17:00N 48°16' W 123°06'612.5
2017-Oct-12 16:30N 48°13' W 123°14'5 9.9
2017-Oct-12 16:00N 48°10' W 123°20'2 4.9
2017-Oct-12 15:30N 48°08' W 123°23'1 2.6
2017-Oct-12 14:58N 48°08' W 123°25'0 0.3
2017-Oct-12 14:28N 48°08' W 123°25'0 0.3
2017-Oct-12 13:55N 48°08' W 123°25'0 0.5
2017-Oct-12 13:28N 48°08' W 123°25'0 0.0
2017-Oct-12 12:55N 48°08' W 123°25'0 0.2
2017-Oct-12 12:25N 48°08' W 123°25'1 2.1
2017-Oct-12 12:00N 48°08' W 123°24'2 4.8
2017-Oct-12 11:30N 48°09' W 123°21'3 6.0
2017-Oct-12 11:00N 48°10' W 123°17'3 6.6
2017-Oct-12 10:30N 48°11' W 123°12'4 6.9
2017-Oct-12 10:00N 48°13' W 123°07'17 8.5
2017-Oct-12 07:59N 48°09' W 122°42'4 8.9
2017-Oct-12 07:30N 48°05' W 122°38'5 9.1
2017-Oct-12 07:00N 48°01' W 122°37'5 9.3
2017-Oct-12 06:30N 47°57' W 122°32'4 8.9
2017-Oct-12 06:00N 47°54' W 122°28'5 9.1
2017-Oct-12 05:30N 47°49' W 122°27'4 9.0
2017-Oct-12 05:01N 47°45' W 122°26'4 8.7
2017-Oct-12 04:30N 47°41' W 122°27'4 8.6
2017-Oct-12 04:01N 47°36' W 122°27'5 9.0
2017-Oct-12 03:30N 47°32' W 122°26'4 9.0
2017-Oct-12 03:01N 47°28' W 122°24'5 9.2
2017-Oct-12 02:30N 47°23' W 122°21'5 9.4
2017-Oct-12 02:00N 47°20' W 122°26'2 0.5
2017-Oct-11 21:40N 47°18' W 122°25'0 0.0
2017-Oct-11 21:22N 47°18' W 122°25'0 0.0
2017-Oct-11 20:52N 47°18' W 122°25'0 0.0
2017-Oct-11 20:10N 47°18' W 122°25'0 0.0
2017-Oct-11 19:49N 47°18' W 122°25'0 0.0
2017-Oct-11 19:16N 47°18' W 122°25'0 0.0
2017-Oct-11 18:58N 47°18' W 122°25'0 0.0
2017-Oct-11 17:34N 47°18' W 122°25'0 0.0
2017-Oct-11 17:04N 47°18' W 122°25'2 0.1
2017-Oct-10 23:59N 47°16' W 122°24'0 0.0
2017-Oct-10 23:29N 47°16' W 122°24'0 0.0
2017-Oct-10 22:59N 47°16' W 122°24'2 2.8
2017-Oct-10 22:26N 47°18' W 122°25'2 4.8
2017-Oct-10 21:58N 47°15' W 122°26'1 1.3
2017-Oct-10 21:31N 47°16' W 122°26'1 2.6
2017-Oct-10 21:00N 47°17' W 122°28'1 2.5
2017-Oct-10 20:30N 47°17' W 122°26'1 0.9
2017-Oct-10 19:55N 47°18' W 122°25'0 0.0
2017-Oct-10 18:54N 47°18' W 122°25'3 7.2
2017-Oct-10 18:31N 47°20' W 122°27'5 9.4
2017-Oct-10 18:00N 47°24' W 122°22'510.4
2017-Oct-10 17:31N 47°29' W 122°25'510.1
2017-Oct-10 17:00N 47°34' W 122°26'4 8.3
2017-Oct-10 16:31N 47°35' W 122°21'1 1.6
2017-Oct-10 16:00N 47°34' W 122°21'0 0.0
2017-Oct-10 15:30N 47°34' W 122°21'0 0.0
2017-Oct-10 15:00N 47°34' W 122°21'0 0.0
2017-Oct-10 14:00N 47°34' W 122°21'0 0.1
2017-Oct-10 13:30N 47°34' W 122°21'0 0.0
2017-Oct-10 13:00N 47°34' W 122°21'0 0.0
2017-Oct-10 12:30N 47°34' W 122°21'0 0.0
2017-Oct-10 12:00N 47°34' W 122°21'0 0.0
2017-Oct-10 11:30N 47°34' W 122°21'0 0.0
2017-Oct-10 11:00N 47°34' W 122°21'0 0.0
2017-Oct-10 10:30N 47°34' W 122°21'0 0.0
2017-Oct-10 10:00N 47°34' W 122°21'0 0.0
2017-Oct-10 09:30N 47°34' W 122°21'0 0.0
2017-Oct-10 09:00N 47°34' W 122°21'0 0.0
2017-Oct-10 08:30N 47°34' W 122°21'0 0.0
2017-Oct-10 08:00N 47°34' W 122°21'0 0.0
2017-Oct-10 07:30N 47°34' W 122°21'0 0.0
2017-Oct-10 07:00N 47°34' W 122°21'0 0.0
2017-Oct-10 06:30N 47°34' W 122°21'0 0.0
2017-Oct-10 06:00N 47°34' W 122°21'0 0.0
2017-Oct-10 05:27N 47°34' W 122°21'0 0.0
2017-Oct-10 05:00N 47°34' W 122°21'0 0.0
2017-Oct-10 04:30N 47°34' W 122°21'0 0.0
2017-Oct-10 04:00N 47°34' W 122°21'0 0.0
2017-Oct-10 03:27N 47°34' W 122°21'0 0.0
2017-Oct-10 03:00N 47°34' W 122°21'0 0.0
2017-Oct-10 02:30N 47°34' W 122°21'0 0.0
2017-Oct-10 02:00N 47°34' W 122°21'0 0.0
2017-Oct-10 01:30N 47°34' W 122°21'0 0.0
2017-Oct-10 01:00N 47°34' W 122°21'0 0.0
2017-Oct-10 00:30N 47°34' W 122°21'0 0.0
2017-Oct-10 00:00N 47°34' W 122°21'0 0.0
2017-Oct-09 23:30N 47°34' W 122°21'0 0.0
2017-Oct-09 23:00N 47°34' W 122°21'0 0.0
2017-Oct-09 22:30N 47°34' W 122°21'0 0.0
2017-Oct-09 22:00N 47°34' W 122°21'0 0.0
2017-Oct-09 21:30N 47°34' W 122°21'0 0.0
2017-Oct-09 21:00N 47°34' W 122°21'0 0.0
2017-Oct-09 20:30N 47°34' W 122°21'0 0.0
2017-Oct-09 20:00N 47°34' W 122°21'0 0.0
2017-Oct-09 19:30N 47°34' W 122°21'0 0.0
2017-Oct-09 18:59N 47°34' W 122°21'0 0.0
2017-Oct-09 18:30N 47°34' W 122°21'0 0.0
2017-Oct-09 18:00N 47°34' W 122°21'0 0.0
2017-Oct-09 17:26N 47°34' W 122°21'0 0.0
2017-Oct-09 17:00N 47°34' W 122°21'0 0.0
2017-Oct-09 16:30N 47°34' W 122°21'0 0.0
2017-Oct-09 15:59N 47°34' W 122°21'0 0.0
2017-Oct-09 15:30N 47°34' W 122°21'0 0.0
2017-Oct-09 14:59N 47°34' W 122°21'0 0.0
2017-Oct-09 14:30N 47°34' W 122°21'0 0.0
2017-Oct-09 14:00N 47°34' W 122°21'0 0.0
2017-Oct-09 13:30N 47°34' W 122°21'0 0.0
2017-Oct-09 12:59N 47°34' W 122°21'0 0.0
2017-Oct-09 12:30N 47°34' W 122°21'0 0.0
2017-Oct-09 11:59N 47°34' W 122°21'0 0.0
2017-Oct-09 11:29N 47°34' W 122°21'0 0.0
2017-Oct-09 11:00N 47°34' W 122°21'0 0.0
2017-Oct-09 10:29N 47°34' W 122°21'0 0.0
2017-Oct-09 10:00N 47°34' W 122°21'0 0.0
2017-Oct-09 09:29N 47°34' W 122°21'0 0.0
2017-Oct-09 09:00N 47°34' W 122°21'0 0.0
2017-Oct-09 08:29N 47°34' W 122°21'0 0.0
2017-Oct-09 07:59N 47°34' W 122°21'0 0.0
2017-Oct-09 07:29N 47°34' W 122°21'0 0.0
2017-Oct-09 06:59N 47°34' W 122°21'0 0.0
2017-Oct-09 06:30N 47°34' W 122°21'0 0.0
2017-Oct-09 05:59N 47°34' W 122°21'0 0.0
2017-Oct-09 05:29N 47°34' W 122°21'0 0.0
2017-Oct-09 04:59N 47°34' W 122°21'0 0.0
2017-Oct-09 04:29N 47°34' W 122°21'0 0.0
2017-Oct-09 04:00N 47°34' W 122°21'0 0.1
2017-Oct-09 03:30N 47°34' W 122°21'0 0.2
2017-Oct-09 02:59N 47°34' W 122°21'0 0.1
2017-Oct-09 02:29N 47°34' W 122°21'0 0.0
2017-Oct-09 01:59N 47°34' W 122°21'0 0.0
2017-Oct-09 01:28N 47°34' W 122°21'0 0.0
2017-Oct-09 00:58N 47°34' W 122°21'0 0.0
2017-Oct-09 00:26N 47°34' W 122°21'0 0.0
2017-Oct-08 23:59N 47°34' W 122°21'0 0.0
2017-Oct-08 23:28N 47°34' W 122°21'0 0.0
2017-Oct-08 22:58N 47°34' W 122°21'0 0.2
2017-Oct-08 22:30N 47°34' W 122°21'0 0.1
2017-Oct-08 22:00N 47°34' W 122°21'0 0.0
2017-Oct-08 21:30N 47°34' W 122°21'0 0.0
2017-Oct-08 20:57N 47°34' W 122°21'0 0.0
2017-Oct-08 20:30N 47°34' W 122°21'0 0.0
2017-Oct-08 19:57N 47°34' W 122°21'0 0.2
2017-Oct-08 19:30N 47°34' W 122°21'0 0.0
2017-Oct-08 19:00N 47°34' W 122°21'0 0.0
2017-Oct-08 18:30N 47°34' W 122°21'0 0.0
2017-Oct-08 18:00N 47°34' W 122°21'0 0.0
2017-Oct-08 17:30N 47°34' W 122°21'0 0.0
2017-Oct-08 17:00N 47°34' W 122°21'0 0.0
2017-Oct-08 16:30N 47°34' W 122°21'0 0.0
2017-Oct-08 16:00N 47°34' W 122°21'0 0.0
2017-Oct-08 15:30N 47°34' W 122°21'0 0.0
2017-Oct-08 15:00N 47°34' W 122°21'0 0.0
2017-Oct-08 14:30N 47°34' W 122°21'0 0.0
2017-Oct-08 14:00N 47°34' W 122°21'0 0.0
2017-Oct-08 13:30N 47°34' W 122°21'0 0.0
2017-Oct-08 13:00N 47°34' W 122°21'0 0.0
2017-Oct-08 12:29N 47°34' W 122°21'0 0.0
2017-Oct-08 12:00N 47°34' W 122°21'0 0.0
2017-Oct-08 11:30N 47°34' W 122°21'0 0.0
2017-Oct-08 11:00N 47°34' W 122°21'0 0.0
2017-Oct-08 10:30N 47°34' W 122°21'0 0.0
2017-Oct-08 10:00N 47°34' W 122°21'0 0.0
2017-Oct-08 09:29N 47°34' W 122°21'0 0.0
2017-Oct-08 09:00N 47°34' W 122°21'0 0.0
2017-Oct-08 08:30N 47°34' W 122°21'0 0.0
2017-Oct-08 08:00N 47°34' W 122°21'0 0.0
2017-Oct-08 07:30N 47°34' W 122°21'0 0.0
2017-Oct-08 06:59N 47°34' W 122°21'0 0.0
2017-Oct-08 06:30N 47°34' W 122°21'0 0.0
2017-Oct-08 05:59N 47°34' W 122°21'0 0.0
2017-Oct-08 05:30N 47°34' W 122°21'0 0.0
2017-Oct-08 05:00N 47°34' W 122°21'0 0.0
2017-Oct-08 04:30N 47°34' W 122°21'0 0.0
2017-Oct-08 04:00N 47°34' W 122°21'0 0.0
2017-Oct-08 03:30N 47°34' W 122°21'0 0.0
2017-Oct-08 03:00N 47°34' W 122°21'0 0.0
2017-Oct-08 02:29N 47°34' W 122°21'0 0.0
2017-Oct-08 01:59N 47°34' W 122°21'0 0.0
2017-Oct-08 01:30N 47°34' W 122°21'0 0.0
2017-Oct-08 00:59N 47°34' W 122°21'0 0.0
2017-Oct-08 00:30N 47°34' W 122°21'0 0.0
2017-Oct-08 00:00N 47°34' W 122°21'0 0.0
2017-Oct-07 23:30N 47°34' W 122°21'0 0.0
2017-Oct-07 22:59N 47°34' W 122°21'0 0.0
2017-Oct-07 22:30N 47°34' W 122°21'0 0.0
2017-Oct-07 21:59N 47°34' W 122°21'0 0.0
2017-Oct-07 21:29N 47°34' W 122°21'0 0.0
2017-Oct-07 20:59N 47°34' W 122°21'0 0.0
2017-Oct-07 20:30N 47°34' W 122°21'0 0.0
2017-Oct-07 20:00N 47°34' W 122°21'0 0.0
2017-Oct-07 19:29N 47°34' W 122°21'0 0.0
2017-Oct-07 19:00N 47°34' W 122°21'0 0.0
2017-Oct-07 18:29N 47°34' W 122°21'0 0.0
2017-Oct-07 18:00N 47°34' W 122°21'0 0.0
2017-Oct-07 17:30N 47°34' W 122°21'0 0.0
2017-Oct-07 16:59N 47°34' W 122°21'0 0.0
2017-Oct-07 16:30N 47°34' W 122°21'0 0.0
2017-Oct-07 16:00N 47°34' W 122°21'  
Track history (hours):
 
Tides and Currents Weather Stations Pressure Air Temp Water Temp Dewpoint Dewpoint Depression Visibility Wind Speed Wind Dir Waves Ship Positions

Millennium Star

Owner: Harley Marine Services, INC, SEATTLE, WA. More information available from US FCC via Universal Licensing System and Coast Guard Vessel Documentation Center.

Last reported at 2017-Oct-17 15:30 UTC. Time now 2017-Oct-17 15:43 UTC.
Position N 48°47' W 122°44'.

Length 30 m; draft 4 m.

Type: Tug. MMSI: 366971980.

Date/timePositionNaut miles runAvg speedWind from/ knotsBaromVisibWave heightAir tempDewpointWater temp
2017-Oct-17 15:30N 48°47' W 122°44'3 0.2
2017-Oct-16 20:15N 48°44' W 122°44'210.5
2017-Oct-16 20:00N 48°42' W 122°43'510.0
2017-Oct-16 19:30N 48°38' W 122°39'4 8.3
2017-Oct-16 19:01N 48°35' W 122°35'3 0.1
2017-Oct-15 04:08N 48°31' W 122°37'1 3.8
2017-Oct-15 04:00N 48°32' W 122°36'4 8.5
2017-Oct-15 03:30N 48°36' W 122°34'1 1.7
2017-Oct-15 03:00N 48°36' W 122°35'510.7
2017-Oct-15 02:30N 48°40' W 122°41'611.5
2017-Oct-15 02:00N 48°45' W 122°45'3 0.2
2017-Oct-14 13:10N 48°48' W 122°44'2 5.6
2017-Oct-14 12:51N 48°46' W 122°45'2 6.0
2017-Oct-14 12:30N 48°44' W 122°45'4 9.0
2017-Oct-14 12:00N 48°40' W 122°41'5 9.9
2017-Oct-14 11:30N 48°36' W 122°37'5 8.1
2017-Oct-14 10:55N 48°31' W 122°36'1 0.1
2017-Oct-14 04:53N 48°31' W 122°37'0 0.0
2017-Oct-14 04:23N 48°31' W 122°37'0 0.0
2017-Oct-12 21:14N 48°31' W 122°37'0 0.2
2017-Oct-12 19:30N 48°31' W 122°36'2 4.4
2017-Oct-12 19:00N 48°31' W 122°39'4 8.2
2017-Oct-12 18:30N 48°29' W 122°44'713.4
2017-Oct-12 18:00N 48°23' W 122°50'713.3
2017-Oct-12 17:27N 48°19' W 122°59'612.8
2017-Oct-12 17:00N 48°16' W 123°06'612.5
2017-Oct-12 16:30N 48°13' W 123°14'5 9.9
2017-Oct-12 16:00N 48°10' W 123°20'2 4.9
2017-Oct-12 15:30N 48°08' W 123°23'1 2.6
2017-Oct-12 14:58N 48°08' W 123°25'0 0.3
2017-Oct-12 14:28N 48°08' W 123°25'0 0.3
2017-Oct-12 13:55N 48°08' W 123°25'0 0.5
2017-Oct-12 13:28N 48°08' W 123°25'0 0.0
2017-Oct-12 12:55N 48°08' W 123°25'0 0.2
2017-Oct-12 12:25N 48°08' W 123°25'1 2.1
2017-Oct-12 12:00N 48°08' W 123°24'2 4.8
2017-Oct-12 11:30N 48°09' W 123°21'3 6.0
2017-Oct-12 11:00N 48°10' W 123°17'3 6.6
2017-Oct-12 10:30N 48°11' W 123°12'4 6.9
2017-Oct-12 10:00N 48°13' W 123°07'17 8.5
2017-Oct-12 07:59N 48°09' W 122°42'4 8.9
2017-Oct-12 07:30N 48°05' W 122°38'5 9.1
2017-Oct-12 07:00N 48°01' W 122°37'5 9.3
2017-Oct-12 06:30N 47°57' W 122°32'4 8.9
2017-Oct-12 06:00N 47°54' W 122°28'5 9.1
2017-Oct-12 05:30N 47°49' W 122°27'4 9.0
2017-Oct-12 05:01N 47°45' W 122°26'4 8.7
2017-Oct-12 04:30N 47°41' W 122°27'4 8.6
2017-Oct-12 04:01N 47°36' W 122°27'5 9.0
2017-Oct-12 03:30N 47°32' W 122°26'4 9.0
2017-Oct-12 03:01N 47°28' W 122°24'5 9.2
2017-Oct-12 02:30N 47°23' W 122°21'5 9.4
2017-Oct-12 02:00N 47°20' W 122°26'2 0.5
2017-Oct-11 21:40N 47°18' W 122°25'0 0.0
2017-Oct-11 21:22N 47°18' W 122°25'0 0.0
2017-Oct-11 20:52N 47°18' W 122°25'0 0.0
2017-Oct-11 20:10N 47°18' W 122°25'0 0.0
2017-Oct-11 19:49N 47°18' W 122°25'0 0.0
2017-Oct-11 19:16N 47°18' W 122°25'0 0.0
2017-Oct-11 18:58N 47°18' W 122°25'0 0.0
2017-Oct-11 17:34N 47°18' W 122°25'0 0.0
2017-Oct-11 17:04N 47°18' W 122°25'2 0.1
2017-Oct-10 23:59N 47°16' W 122°24'0 0.0
2017-Oct-10 23:29N 47°16' W 122°24'0 0.0
2017-Oct-10 22:59N 47°16' W 122°24'2 2.8
2017-Oct-10 22:26N 47°18' W 122°25'2 4.8
2017-Oct-10 21:58N 47°15' W 122°26'1 1.3
2017-Oct-10 21:31N 47°16' W 122°26'1 2.6
2017-Oct-10 21:00N 47°17' W 122°28'1 2.5
2017-Oct-10 20:30N 47°17' W 122°26'1 0.9
2017-Oct-10 19:55N 47°18' W 122°25'0 0.0
2017-Oct-10 18:54N 47°18' W 122°25'3 7.2
2017-Oct-10 18:31N 47°20' W 122°27'5 9.4
2017-Oct-10 18:00N 47°24' W 122°22'510.4
2017-Oct-10 17:31N 47°29' W 122°25'510.1
2017-Oct-10 17:00N 47°34' W 122°26'4 8.3
2017-Oct-10 16:31N 47°35' W 122°21'1 1.6
2017-Oct-10 16:00N 47°34' W 122°21'0 0.0
2017-Oct-10 15:30N 47°34' W 122°21'0 0.0
2017-Oct-10 15:00N 47°34' W 122°21'0 0.0
2017-Oct-10 14:00N 47°34' W 122°21'0 0.1
2017-Oct-10 13:30N 47°34' W 122°21'0 0.0
2017-Oct-10 13:00N 47°34' W 122°21'0 0.0
2017-Oct-10 12:30N 47°34' W 122°21'0 0.0
2017-Oct-10 12:00N 47°34' W 122°21'0 0.0
2017-Oct-10 11:30N 47°34' W 122°21'0 0.0
2017-Oct-10 11:00N 47°34' W 122°21'0 0.0
2017-Oct-10 10:30N 47°34' W 122°21'0 0.0
2017-Oct-10 10:00N 47°34' W 122°21'0 0.0
2017-Oct-10 09:30N 47°34' W 122°21'0 0.0
2017-Oct-10 09:00N 47°34' W 122°21'0 0.0
2017-Oct-10 08:30N 47°34' W 122°21'0 0.0
2017-Oct-10 08:00N 47°34' W 122°21'0 0.0
2017-Oct-10 07:30N 47°34' W 122°21'0 0.0
2017-Oct-10 07:00N 47°34' W 122°21'0 0.0
2017-Oct-10 06:30N 47°34' W 122°21'0 0.0
2017-Oct-10 06:00N 47°34' W 122°21'0 0.0
2017-Oct-10 05:27N 47°34' W 122°21'0 0.0
2017-Oct-10 05:00N 47°34' W 122°21'0 0.0
2017-Oct-10 04:30N 47°34' W 122°21'0 0.0
2017-Oct-10 04:00N 47°34' W 122°21'0 0.0
2017-Oct-10 03:27N 47°34' W 122°21'0 0.0
2017-Oct-10 03:00N 47°34' W 122°21'0 0.0
2017-Oct-10 02:30N 47°34' W 122°21'0 0.0
2017-Oct-10 02:00N 47°34' W 122°21'0 0.0
2017-Oct-10 01:30N 47°34' W 122°21'0 0.0
2017-Oct-10 01:00N 47°34' W 122°21'0 0.0
2017-Oct-10 00:30N 47°34' W 122°21'0 0.0
2017-Oct-10 00:00N 47°34' W 122°21'0 0.0
2017-Oct-09 23:30N 47°34' W 122°21'0 0.0
2017-Oct-09 23:00N 47°34' W 122°21'0 0.0
2017-Oct-09 22:30N 47°34' W 122°21'0 0.0
2017-Oct-09 22:00N 47°34' W 122°21'0 0.0
2017-Oct-09 21:30N 47°34' W 122°21'0 0.0
2017-Oct-09 21:00N 47°34' W 122°21'0 0.0
2017-Oct-09 20:30N 47°34' W 122°21'0 0.0
2017-Oct-09 20:00N 47°34' W 122°21'0 0.0
2017-Oct-09 19:30N 47°34' W 122°21'0 0.0
2017-Oct-09 18:59N 47°34' W 122°21'0 0.0
2017-Oct-09 18:30N 47°34' W 122°21'0 0.0
2017-Oct-09 18:00N 47°34' W 122°21'0 0.0
2017-Oct-09 17:26N 47°34' W 122°21'0 0.0
2017-Oct-09 17:00N 47°34' W 122°21'0 0.0
2017-Oct-09 16:30N 47°34' W 122°21'0 0.0
2017-Oct-09 15:59N 47°34' W 122°21'0 0.0
2017-Oct-09 15:30N 47°34' W 122°21'0 0.0
2017-Oct-09 14:59N 47°34' W 122°21'0 0.0
2017-Oct-09 14:30N 47°34' W 122°21'0 0.0
2017-Oct-09 14:00N 47°34' W 122°21'0 0.0
2017-Oct-09 13:30N 47°34' W 122°21'0 0.0
2017-Oct-09 12:59N 47°34' W 122°21'0 0.0
2017-Oct-09 12:30N 47°34' W 122°21'0 0.0
2017-Oct-09 11:59N 47°34' W 122°21'0 0.0
2017-Oct-09 11:29N 47°34' W 122°21'0 0.0
2017-Oct-09 11:00N 47°34' W 122°21'0 0.0
2017-Oct-09 10:29N 47°34' W 122°21'0 0.0
2017-Oct-09 10:00N 47°34' W 122°21'0 0.0
2017-Oct-09 09:29N 47°34' W 122°21'0 0.0
2017-Oct-09 09:00N 47°34' W 122°21'0 0.0
2017-Oct-09 08:29N 47°34' W 122°21'0 0.0
2017-Oct-09 07:59N 47°34' W 122°21'0 0.0
2017-Oct-09 07:29N 47°34' W 122°21'0 0.0
2017-Oct-09 06:59N 47°34' W 122°21'0 0.0
2017-Oct-09 06:30N 47°34' W 122°21'0 0.0
2017-Oct-09 05:59N 47°34' W 122°21'0 0.0
2017-Oct-09 05:29N 47°34' W 122°21'0 0.0
2017-Oct-09 04:59N 47°34' W 122°21'0 0.0
2017-Oct-09 04:29N 47°34' W 122°21'0 0.0
2017-Oct-09 04:00N 47°34' W 122°21'0 0.1
2017-Oct-09 03:30N 47°34' W 122°21'0 0.2
2017-Oct-09 02:59N 47°34' W 122°21'0 0.1
2017-Oct-09 02:29N 47°34' W 122°21'0 0.0
2017-Oct-09 01:59N 47°34' W 122°21'0 0.0
2017-Oct-09 01:28N 47°34' W 122°21'0 0.0
2017-Oct-09 00:58N 47°34' W 122°21'0 0.0
2017-Oct-09 00:26N 47°34' W 122°21'0 0.0
2017-Oct-08 23:59N 47°34' W 122°21'0 0.0
2017-Oct-08 23:28N 47°34' W 122°21'0 0.0
2017-Oct-08 22:58N 47°34' W 122°21'0 0.2
2017-Oct-08 22:30N 47°34' W 122°21'0 0.1
2017-Oct-08 22:00N 47°34' W 122°21'0 0.0
2017-Oct-08 21:30N 47°34' W 122°21'0 0.0
2017-Oct-08 20:57N 47°34' W 122°21'0 0.0
2017-Oct-08 20:30N 47°34' W 122°21'0 0.0
2017-Oct-08 19:57N 47°34' W 122°21'0 0.2
2017-Oct-08 19:30N 47°34' W 122°21'0 0.0
2017-Oct-08 19:00N 47°34' W 122°21'0 0.0
2017-Oct-08 18:30N 47°34' W 122°21'0 0.0
2017-Oct-08 18:00N 47°34' W 122°21'0 0.0
2017-Oct-08 17:30N 47°34' W 122°21'0 0.0
2017-Oct-08 17:00N 47°34' W 122°21'0 0.0
2017-Oct-08 16:30N 47°34' W 122°21'0 0.0
2017-Oct-08 16:00N 47°34' W 122°21'0 0.0
2017-Oct-08 15:30N 47°34' W 122°21'0 0.0
2017-Oct-08 15:00N 47°34' W 122°21'0 0.0
2017-Oct-08 14:30N 47°34' W 122°21'0 0.0
2017-Oct-08 14:00N 47°34' W 122°21'0 0.0
2017-Oct-08 13:30N 47°34' W 122°21'0 0.0
2017-Oct-08 13:00N 47°34' W 122°21'0 0.0
2017-Oct-08 12:29N 47°34' W 122°21'0 0.0
2017-Oct-08 12:00N 47°34' W 122°21'0 0.0
2017-Oct-08 11:30N 47°34' W 122°21'0 0.0
2017-Oct-08 11:00N 47°34' W 122°21'0 0.0
2017-Oct-08 10:30N 47°34' W 122°21'0 0.0
2017-Oct-08 10:00N 47°34' W 122°21'0 0.0
2017-Oct-08 09:29N 47°34' W 122°21'0 0.0
2017-Oct-08 09:00N 47°34' W 122°21'0 0.0
2017-Oct-08 08:30N 47°34' W 122°21'0 0.0
2017-Oct-08 08:00N 47°34' W 122°21'0 0.0
2017-Oct-08 07:30N 47°34' W 122°21'0 0.0
2017-Oct-08 06:59N 47°34' W 122°21'0 0.0
2017-Oct-08 06:30N 47°34' W 122°21'0 0.0
2017-Oct-08 05:59N 47°34' W 122°21'0 0.0
2017-Oct-08 05:30N 47°34' W 122°21'0 0.0
2017-Oct-08 05:00N 47°34' W 122°21'0 0.0
2017-Oct-08 04:30N 47°34' W 122°21'0 0.0
2017-Oct-08 04:00N 47°34' W 122°21'0 0.0
2017-Oct-08 03:30N 47°34' W 122°21'0 0.0
2017-Oct-08 03:00N 47°34' W 122°21'0 0.0
2017-Oct-08 02:29N 47°34' W 122°21'0 0.0
2017-Oct-08 01:59N 47°34' W 122°21'0 0.0
2017-Oct-08 01:30N 47°34' W 122°21'0 0.0
2017-Oct-08 00:59N 47°34' W 122°21'0 0.0
2017-Oct-08 00:30N 47°34' W 122°21'0 0.0
2017-Oct-08 00:00N 47°34' W 122°21'0 0.0
2017-Oct-07 23:30N 47°34' W 122°21'0 0.0
2017-Oct-07 22:59N 47°34' W 122°21'0 0.0
2017-Oct-07 22:30N 47°34' W 122°21'0 0.0
2017-Oct-07 21:59N 47°34' W 122°21'0 0.0
2017-Oct-07 21:29N 47°34' W 122°21'0 0.0
2017-Oct-07 20:59N 47°34' W 122°21'0 0.0
2017-Oct-07 20:30N 47°34' W 122°21'0 0.0
2017-Oct-07 20:00N 47°34' W 122°21'0 0.0
2017-Oct-07 19:29N 47°34' W 122°21'0 0.0
2017-Oct-07 19:00N 47°34' W 122°21'0 0.0
2017-Oct-07 18:29N 47°34' W 122°21'0 0.0
2017-Oct-07 18:00N 47°34' W 122°21'0 0.0
2017-Oct-07 17:30N 47°34' W 122°21'0 0.0
2017-Oct-07 16:59N 47°34' W 122°21'0 0.0
2017-Oct-07 16:30N 47°34' W 122°21'0 0.0
2017-Oct-07 16:00N 47°34' W 122°21'  

Dump ship's entire track history